sensor_id;sensor_type;location;lat;lon;timestamp;P1;durP1;ratioP1;P2;durP2;ratioP2
24259;SDS011;12384;48.112;18.418;2022-12-18T00:00:05;36.07;;;25.23;;
24259;SDS011;12384;48.112;18.418;2022-12-18T00:02:40;40.60;;;26.00;;
24259;SDS011;12384;48.112;18.418;2022-12-18T00:05:08;38.87;;;25.93;;
24259;SDS011;12384;48.112;18.418;2022-12-18T00:07:37;37.30;;;26.43;;
24259;SDS011;12384;48.112;18.418;2022-12-18T00:10:05;38.03;;;26.80;;
24259;SDS011;12384;48.112;18.418;2022-12-18T00:12:35;36.40;;;26.13;;
24259;SDS011;12384;48.112;18.418;2022-12-18T00:15:03;35.33;;;25.03;;
24259;SDS011;12384;48.112;18.418;2022-12-18T00:17:32;38.30;;;25.77;;
24259;SDS011;12384;48.112;18.418;2022-12-18T00:20:01;35.77;;;24.33;;
24259;SDS011;12384;48.112;18.418;2022-12-18T00:22:30;37.43;;;26.10;;
24259;SDS011;12384;48.112;18.418;2022-12-18T00:24:58;35.13;;;24.80;;
24259;SDS011;12384;48.112;18.418;2022-12-18T00:27:27;37.00;;;24.57;;
24259;SDS011;12384;48.112;18.418;2022-12-18T00:29:55;33.23;;;24.87;;
24259;SDS011;12384;48.112;18.418;2022-12-18T00:32:23;33.03;;;23.53;;
24259;SDS011;12384;48.112;18.418;2022-12-18T00:34:51;33.37;;;23.90;;
24259;SDS011;12384;48.112;18.418;2022-12-18T00:37:21;36.37;;;24.67;;
24259;SDS011;12384;48.112;18.418;2022-12-18T00:39:50;32.47;;;24.03;;
24259;SDS011;12384;48.112;18.418;2022-12-18T00:42:18;34.37;;;24.50;;
24259;SDS011;12384;48.112;18.418;2022-12-18T00:45:05;35.43;;;25.33;;
24259;SDS011;12384;48.112;18.418;2022-12-18T00:47:38;33.90;;;24.37;;
24259;SDS011;12384;48.112;18.418;2022-12-18T00:50:08;36.60;;;24.53;;
24259;SDS011;12384;48.112;18.418;2022-12-18T00:52:38;35.47;;;24.03;;
24259;SDS011;12384;48.112;18.418;2022-12-18T00:55:08;41.13;;;26.70;;
24259;SDS011;12384;48.112;18.418;2022-12-18T00:57:36;34.97;;;24.63;;
24259;SDS011;12384;48.112;18.418;2022-12-18T01:00:06;35.50;;;24.10;;
24259;SDS011;12384;48.112;18.418;2022-12-18T01:02:36;36.37;;;24.37;;
24259;SDS011;12384;48.112;18.418;2022-12-18T01:05:06;34.63;;;23.83;;
24259;SDS011;12384;48.112;18.418;2022-12-18T01:07:36;30.77;;;21.90;;
24259;SDS011;12384;48.112;18.418;2022-12-18T01:10:06;34.13;;;23.33;;
24259;SDS011;12384;48.112;18.418;2022-12-18T01:12:36;29.83;;;22.90;;
24259;SDS011;12384;48.112;18.418;2022-12-18T01:15:06;33.40;;;24.83;;
24259;SDS011;12384;48.112;18.418;2022-12-18T01:17:36;30.83;;;23.13;;
24259;SDS011;12384;48.112;18.418;2022-12-18T01:20:04;33.07;;;23.43;;
24259;SDS011;12384;48.112;18.418;2022-12-18T01:22:33;30.60;;;22.63;;
24259;SDS011;12384;48.112;18.418;2022-12-18T01:25:03;34.23;;;23.03;;
24259;SDS011;12384;48.112;18.418;2022-12-18T01:27:32;30.60;;;22.70;;
24259;SDS011;12384;48.112;18.418;2022-12-18T01:30:03;33.97;;;24.57;;
24259;SDS011;12384;48.112;18.418;2022-12-18T01:32:31;37.63;;;24.17;;
24259;SDS011;12384;48.112;18.418;2022-12-18T01:35:01;37.23;;;24.03;;
24259;SDS011;12384;48.112;18.418;2022-12-18T01:37:30;31.97;;;22.30;;
24259;SDS011;12384;48.112;18.418;2022-12-18T01:39:58;30.03;;;21.20;;
24259;SDS011;12384;48.112;18.418;2022-12-18T01:42:28;29.10;;;20.60;;
24259;SDS011;12384;48.112;18.418;2022-12-18T01:44:58;34.03;;;24.23;;
24259;SDS011;12384;48.112;18.418;2022-12-18T01:47:30;31.00;;;22.27;;
24259;SDS011;12384;48.112;18.418;2022-12-18T01:50:04;26.33;;;20.93;;
24259;SDS011;12384;48.112;18.418;2022-12-18T01:52:36;25.80;;;20.17;;
24259;SDS011;12384;48.112;18.418;2022-12-18T01:55:06;34.40;;;23.13;;
24259;SDS011;12384;48.112;18.418;2022-12-18T01:57:36;28.00;;;21.07;;
24259;SDS011;12384;48.112;18.418;2022-12-18T02:00:06;38.47;;;24.13;;
24259;SDS011;12384;48.112;18.418;2022-12-18T02:02:40;28.60;;;21.47;;
24259;SDS011;12384;48.112;18.418;2022-12-18T02:05:12;25.90;;;19.70;;
24259;SDS011;12384;48.112;18.418;2022-12-18T02:07:47;24.90;;;19.37;;
24259;SDS011;12384;48.112;18.418;2022-12-18T02:10:24;21.97;;;18.27;;
24259;SDS011;12384;48.112;18.418;2022-12-18T02:13:01;25.47;;;21.03;;
24259;SDS011;12384;48.112;18.418;2022-12-18T02:15:36;27.43;;;20.43;;
24259;SDS011;12384;48.112;18.418;2022-12-18T02:18:07;27.50;;;19.83;;
24259;SDS011;12384;48.112;18.418;2022-12-18T02:20:40;32.60;;;22.33;;
24259;SDS011;12384;48.112;18.418;2022-12-18T02:23:14;32.40;;;22.97;;
24259;SDS011;12384;48.112;18.418;2022-12-18T02:26:09;28.67;;;21.67;;
24259;SDS011;12384;48.112;18.418;2022-12-18T02:28:45;32.30;;;22.40;;
24259;SDS011;12384;48.112;18.418;2022-12-18T02:31:17;26.97;;;20.73;;
24259;SDS011;12384;48.112;18.418;2022-12-18T02:33:52;24.50;;;18.83;;
24259;SDS011;12384;48.112;18.418;2022-12-18T02:36:23;28.20;;;19.60;;
24259;SDS011;12384;48.112;18.418;2022-12-18T02:38:55;25.70;;;20.07;;
24259;SDS011;12384;48.112;18.418;2022-12-18T02:41:27;23.17;;;18.93;;
24259;SDS011;12384;48.112;18.418;2022-12-18T02:43:59;25.03;;;19.90;;
24259;SDS011;12384;48.112;18.418;2022-12-18T02:46:34;28.10;;;21.33;;
24259;SDS011;12384;48.112;18.418;2022-12-18T02:49:12;24.43;;;20.33;;
24259;SDS011;12384;48.112;18.418;2022-12-18T02:51:52;29.60;;;22.13;;
24259;SDS011;12384;48.112;18.418;2022-12-18T02:54:31;30.03;;;22.60;;
24259;SDS011;12384;48.112;18.418;2022-12-18T02:57:12;31.30;;;22.40;;
24259;SDS011;12384;48.112;18.418;2022-12-18T02:59:48;26.73;;;20.90;;
24259;SDS011;12384;48.112;18.418;2022-12-18T03:02:25;31.57;;;22.97;;
24259;SDS011;12384;48.112;18.418;2022-12-18T03:05:00;31.37;;;21.87;;
24259;SDS011;12384;48.112;18.418;2022-12-18T03:07:34;34.07;;;23.30;;
24259;SDS011;12384;48.112;18.418;2022-12-18T03:10:09;30.90;;;22.03;;
24259;SDS011;12384;48.112;18.418;2022-12-18T03:12:45;34.33;;;22.67;;
24259;SDS011;12384;48.112;18.418;2022-12-18T03:15:21;31.73;;;22.57;;
24259;SDS011;12384;48.112;18.418;2022-12-18T03:17:59;36.03;;;24.23;;
24259;SDS011;12384;48.112;18.418;2022-12-18T03:20:32;33.13;;;22.83;;
24259;SDS011;12384;48.112;18.418;2022-12-18T03:23:06;31.57;;;23.03;;
24259;SDS011;12384;48.112;18.418;2022-12-18T03:25:38;32.23;;;22.90;;
24259;SDS011;12384;48.112;18.418;2022-12-18T03:28:12;31.77;;;21.87;;
24259;SDS011;12384;48.112;18.418;2022-12-18T03:30:44;33.43;;;23.27;;
24259;SDS011;12384;48.112;18.418;2022-12-18T03:33:15;35.83;;;24.20;;
24259;SDS011;12384;48.112;18.418;2022-12-18T03:35:48;32.73;;;22.77;;
24259;SDS011;12384;48.112;18.418;2022-12-18T03:38:17;37.63;;;25.13;;
24259;SDS011;12384;48.112;18.418;2022-12-18T03:40:52;34.17;;;24.40;;
24259;SDS011;12384;48.112;18.418;2022-12-18T03:43:33;36.73;;;24.80;;
24259;SDS011;12384;48.112;18.418;2022-12-18T03:46:10;35.80;;;23.70;;
24259;SDS011;12384;48.112;18.418;2022-12-18T03:48:43;37.53;;;24.43;;
24259;SDS011;12384;48.112;18.418;2022-12-18T03:51:18;38.30;;;24.13;;
24259;SDS011;12384;48.112;18.418;2022-12-18T03:53:53;32.90;;;23.43;;
24259;SDS011;12384;48.112;18.418;2022-12-18T03:56:32;36.10;;;23.53;;
24259;SDS011;12384;48.112;18.418;2022-12-18T03:59:07;32.30;;;22.00;;
24259;SDS011;12384;48.112;18.418;2022-12-18T04:01:39;29.13;;;20.77;;
24259;SDS011;12384;48.112;18.418;2022-12-18T04:04:14;28.17;;;21.63;;
24259;SDS011;12384;48.112;18.418;2022-12-18T04:06:45;34.30;;;22.50;;
24259;SDS011;12384;48.112;18.418;2022-12-18T04:09:17;31.17;;;21.27;;
24259;SDS011;12384;48.112;18.418;2022-12-18T04:11:47;30.77;;;20.80;;
24259;SDS011;12384;48.112;18.418;2022-12-18T04:14:17;29.27;;;21.73;;
24259;SDS011;12384;48.112;18.418;2022-12-18T04:16:50;31.27;;;21.30;;
24259;SDS011;12384;48.112;18.418;2022-12-18T04:19:24;26.47;;;19.87;;
24259;SDS011;12384;48.112;18.418;2022-12-18T04:21:55;28.43;;;20.97;;
24259;SDS011;12384;48.112;18.418;2022-12-18T04:24:23;25.87;;;20.33;;
24259;SDS011;12384;48.112;18.418;2022-12-18T04:27:02;31.67;;;21.40;;
24259;SDS011;12384;48.112;18.418;2022-12-18T04:29:40;30.77;;;21.00;;
24259;SDS011;12384;48.112;18.418;2022-12-18T04:32:09;27.73;;;19.47;;
24259;SDS011;12384;48.112;18.418;2022-12-18T04:34:38;27.87;;;19.30;;
24259;SDS011;12384;48.112;18.418;2022-12-18T04:37:07;25.80;;;18.73;;
24259;SDS011;12384;48.112;18.418;2022-12-18T04:39:35;28.47;;;18.63;;
24259;SDS011;12384;48.112;18.418;2022-12-18T04:42:11;23.80;;;18.70;;
24259;SDS011;12384;48.112;18.418;2022-12-18T04:44:41;22.13;;;17.83;;
24259;SDS011;12384;48.112;18.418;2022-12-18T04:47:09;27.03;;;19.10;;
24259;SDS011;12384;48.112;18.418;2022-12-18T04:49:38;24.73;;;19.13;;
24259;SDS011;12384;48.112;18.418;2022-12-18T04:52:08;38.67;;;24.20;;
24259;SDS011;12384;48.112;18.418;2022-12-18T04:54:36;34.30;;;23.07;;
24259;SDS011;12384;48.112;18.418;2022-12-18T04:57:04;33.53;;;22.00;;
24259;SDS011;12384;48.112;18.418;2022-12-18T04:59:33;37.40;;;23.70;;
24259;SDS011;12384;48.112;18.418;2022-12-18T05:02:02;29.03;;;20.77;;
24259;SDS011;12384;48.112;18.418;2022-12-18T05:04:31;29.93;;;21.50;;
24259;SDS011;12384;48.112;18.418;2022-12-18T05:06:59;25.70;;;19.13;;
24259;SDS011;12384;48.112;18.418;2022-12-18T05:09:27;25.90;;;18.30;;
24259;SDS011;12384;48.112;18.418;2022-12-18T05:11:56;25.93;;;19.83;;
24259;SDS011;12384;48.112;18.418;2022-12-18T05:14:24;24.80;;;18.87;;
24259;SDS011;12384;48.112;18.418;2022-12-18T05:16:54;28.00;;;19.33;;
24259;SDS011;12384;48.112;18.418;2022-12-18T05:19:27;29.63;;;20.20;;
24259;SDS011;12384;48.112;18.418;2022-12-18T05:21:56;22.93;;;17.83;;
24259;SDS011;12384;48.112;18.418;2022-12-18T05:24:25;30.57;;;19.83;;
24259;SDS011;12384;48.112;18.418;2022-12-18T05:26:53;21.80;;;17.60;;
24259;SDS011;12384;48.112;18.418;2022-12-18T05:29:21;26.83;;;18.40;;
24259;SDS011;12384;48.112;18.418;2022-12-18T05:31:50;26.10;;;17.07;;
24259;SDS011;12384;48.112;18.418;2022-12-18T05:34:18;23.53;;;17.70;;
24259;SDS011;12384;48.112;18.418;2022-12-18T05:36:48;22.37;;;17.03;;
24259;SDS011;12384;48.112;18.418;2022-12-18T05:39:17;28.63;;;18.83;;
24259;SDS011;12384;48.112;18.418;2022-12-18T05:41:45;34.57;;;21.40;;
24259;SDS011;12384;48.112;18.418;2022-12-18T05:44:13;27.87;;;20.27;;
24259;SDS011;12384;48.112;18.418;2022-12-18T05:46:42;22.40;;;17.90;;
24259;SDS011;12384;48.112;18.418;2022-12-18T05:49:10;24.03;;;17.63;;
24259;SDS011;12384;48.112;18.418;2022-12-18T05:51:38;26.27;;;18.20;;
24259;SDS011;12384;48.112;18.418;2022-12-18T05:54:09;23.57;;;17.43;;
24259;SDS011;12384;48.112;18.418;2022-12-18T05:56:37;22.77;;;17.50;;
24259;SDS011;12384;48.112;18.418;2022-12-18T05:59:13;21.80;;;16.13;;
24259;SDS011;12384;48.112;18.418;2022-12-18T06:01:42;27.60;;;17.90;;
24259;SDS011;12384;48.112;18.418;2022-12-18T06:04:11;32.60;;;20.80;;
24259;SDS011;12384;48.112;18.418;2022-12-18T06:06:39;24.80;;;17.10;;
24259;SDS011;12384;48.112;18.418;2022-12-18T06:09:09;32.60;;;18.80;;
24259;SDS011;12384;48.112;18.418;2022-12-18T06:11:38;29.57;;;18.77;;
24259;SDS011;12384;48.112;18.418;2022-12-18T06:14:06;28.57;;;19.13;;
24259;SDS011;12384;48.112;18.418;2022-12-18T06:16:37;28.70;;;18.60;;
24259;SDS011;12384;48.112;18.418;2022-12-18T06:19:05;26.37;;;17.07;;
24259;SDS011;12384;48.112;18.418;2022-12-18T06:21:34;24.43;;;17.80;;
24259;SDS011;12384;48.112;18.418;2022-12-18T06:24:02;34.90;;;20.77;;
24259;SDS011;12384;48.112;18.418;2022-12-18T06:26:32;22.87;;;17.20;;
24259;SDS011;12384;48.112;18.418;2022-12-18T06:29:01;25.43;;;18.03;;
24259;SDS011;12384;48.112;18.418;2022-12-18T06:31:29;28.63;;;19.63;;
24259;SDS011;12384;48.112;18.418;2022-12-18T06:33:58;28.57;;;20.47;;
24259;SDS011;12384;48.112;18.418;2022-12-18T06:36:27;29.53;;;19.33;;
24259;SDS011;12384;48.112;18.418;2022-12-18T06:38:55;28.53;;;19.70;;
24259;SDS011;12384;48.112;18.418;2022-12-18T06:41:24;26.57;;;18.70;;
24259;SDS011;12384;48.112;18.418;2022-12-18T06:43:54;32.37;;;19.77;;
24259;SDS011;12384;48.112;18.418;2022-12-18T06:46:25;28.30;;;19.53;;
24259;SDS011;12384;48.112;18.418;2022-12-18T06:48:54;24.73;;;18.13;;
24259;SDS011;12384;48.112;18.418;2022-12-18T06:51:23;26.23;;;18.90;;
24259;SDS011;12384;48.112;18.418;2022-12-18T06:53:51;25.63;;;18.27;;
24259;SDS011;12384;48.112;18.418;2022-12-18T06:56:20;27.37;;;18.90;;
24259;SDS011;12384;48.112;18.418;2022-12-18T06:58:48;35.83;;;22.80;;
24259;SDS011;12384;48.112;18.418;2022-12-18T07:01:18;28.53;;;19.53;;
24259;SDS011;12384;48.112;18.418;2022-12-18T07:03:46;36.10;;;21.23;;
24259;SDS011;12384;48.112;18.418;2022-12-18T07:06:20;25.23;;;17.57;;
24259;SDS011;12384;48.112;18.418;2022-12-18T07:08:50;27.00;;;17.93;;
24259;SDS011;12384;48.112;18.418;2022-12-18T07:11:21;28.70;;;18.70;;
24259;SDS011;12384;48.112;18.418;2022-12-18T07:13:49;28.93;;;18.50;;
24259;SDS011;12384;48.112;18.418;2022-12-18T07:16:19;29.60;;;18.57;;
24259;SDS011;12384;48.112;18.418;2022-12-18T07:18:51;31.47;;;19.13;;
24259;SDS011;12384;48.112;18.418;2022-12-18T07:21:20;32.47;;;19.53;;
24259;SDS011;12384;48.112;18.418;2022-12-18T07:23:49;34.63;;;20.67;;
24259;SDS011;12384;48.112;18.418;2022-12-18T07:26:18;30.87;;;20.10;;
24259;SDS011;12384;48.112;18.418;2022-12-18T07:28:48;28.00;;;19.97;;
24259;SDS011;12384;48.112;18.418;2022-12-18T07:31:17;31.63;;;20.80;;
24259;SDS011;12384;48.112;18.418;2022-12-18T07:33:49;30.73;;;20.87;;
24259;SDS011;12384;48.112;18.418;2022-12-18T07:36:18;30.20;;;20.10;;
24259;SDS011;12384;48.112;18.418;2022-12-18T07:38:46;32.13;;;21.00;;
24259;SDS011;12384;48.112;18.418;2022-12-18T07:41:15;28.43;;;21.00;;
24259;SDS011;12384;48.112;18.418;2022-12-18T07:43:45;28.07;;;20.57;;
24259;SDS011;12384;48.112;18.418;2022-12-18T07:46:14;29.63;;;21.73;;
24259;SDS011;12384;48.112;18.418;2022-12-18T07:48:45;27.57;;;20.93;;
24259;SDS011;12384;48.112;18.418;2022-12-18T07:51:15;29.03;;;20.50;;
24259;SDS011;12384;48.112;18.418;2022-12-18T07:53:45;28.83;;;20.87;;
24259;SDS011;12384;48.112;18.418;2022-12-18T07:56:17;32.43;;;24.17;;
24259;SDS011;12384;48.112;18.418;2022-12-18T07:58:56;31.27;;;22.80;;
24259;SDS011;12384;48.112;18.418;2022-12-18T08:01:25;29.93;;;22.83;;
24259;SDS011;12384;48.112;18.418;2022-12-18T08:03:56;31.17;;;23.50;;
24259;SDS011;12384;48.112;18.418;2022-12-18T08:06:25;31.87;;;23.87;;
24259;SDS011;12384;48.112;18.418;2022-12-18T08:08:54;31.33;;;24.23;;
24259;SDS011;12384;48.112;18.418;2022-12-18T08:11:24;32.20;;;24.63;;
24259;SDS011;12384;48.112;18.418;2022-12-18T08:13:54;32.27;;;25.23;;
24259;SDS011;12384;48.112;18.418;2022-12-18T08:16:23;35.43;;;27.03;;
24259;SDS011;12384;48.112;18.418;2022-12-18T08:18:53;35.33;;;26.47;;
24259;SDS011;12384;48.112;18.418;2022-12-18T08:21:23;32.70;;;26.73;;
24259;SDS011;12384;48.112;18.418;2022-12-18T08:23:53;28.13;;;23.90;;
24259;SDS011;12384;48.112;18.418;2022-12-18T08:26:25;31.00;;;24.87;;
24259;SDS011;12384;48.112;18.418;2022-12-18T08:28:55;26.60;;;22.90;;
24259;SDS011;12384;48.112;18.418;2022-12-18T08:31:25;26.43;;;23.63;;
24259;SDS011;12384;48.112;18.418;2022-12-18T08:33:55;27.23;;;23.10;;
24259;SDS011;12384;48.112;18.418;2022-12-18T08:36:25;25.90;;;22.73;;
24259;SDS011;12384;48.112;18.418;2022-12-18T08:38:53;27.63;;;23.43;;
24259;SDS011;12384;48.112;18.418;2022-12-18T08:41:22;21.97;;;19.53;;
24259;SDS011;12384;48.112;18.418;2022-12-18T08:43:51;27.73;;;22.97;;
24259;SDS011;12384;48.112;18.418;2022-12-18T08:46:37;24.90;;;21.40;;
24259;SDS011;12384;48.112;18.418;2022-12-18T08:49:07;23.33;;;20.87;;
24259;SDS011;12384;48.112;18.418;2022-12-18T08:51:38;23.30;;;20.63;;
24259;SDS011;12384;48.112;18.418;2022-12-18T08:54:07;23.37;;;20.83;;
24259;SDS011;12384;48.112;18.418;2022-12-18T08:56:38;26.83;;;23.83;;
24259;SDS011;12384;48.112;18.418;2022-12-18T08:59:08;23.40;;;20.90;;
24259;SDS011;12384;48.112;18.418;2022-12-18T09:01:45;25.33;;;22.63;;
24259;SDS011;12384;48.112;18.418;2022-12-18T09:04:14;23.97;;;21.47;;
24259;SDS011;12384;48.112;18.418;2022-12-18T09:06:44;24.00;;;21.47;;
24259;SDS011;12384;48.112;18.418;2022-12-18T09:09:12;24.73;;;22.13;;
24259;SDS011;12384;48.112;18.418;2022-12-18T09:11:40;26.37;;;23.57;;
24259;SDS011;12384;48.112;18.418;2022-12-18T09:14:09;26.30;;;23.50;;
24259;SDS011;12384;48.112;18.418;2022-12-18T09:16:38;26.27;;;23.47;;
24259;SDS011;12384;48.112;18.418;2022-12-18T09:19:06;26.10;;;23.30;;
24259;SDS011;12384;48.112;18.418;2022-12-18T09:21:34;27.23;;;24.33;;
24259;SDS011;12384;48.112;18.418;2022-12-18T09:24:13;28.53;;;25.43;;
24259;SDS011;12384;48.112;18.418;2022-12-18T09:26:42;26.30;;;23.60;;
24259;SDS011;12384;48.112;18.418;2022-12-18T09:29:13;23.87;;;21.30;;
24259;SDS011;12384;48.112;18.418;2022-12-18T09:31:44;25.30;;;22.60;;
24259;SDS011;12384;48.112;18.418;2022-12-18T09:34:13;25.17;;;22.57;;
24259;SDS011;12384;48.112;18.418;2022-12-18T09:36:41;28.93;;;25.27;;
24259;SDS011;12384;48.112;18.418;2022-12-18T09:39:10;25.77;;;22.97;;
24259;SDS011;12384;48.112;18.418;2022-12-18T09:41:44;27.93;;;24.93;;
24259;SDS011;12384;48.112;18.418;2022-12-18T09:44:17;25.83;;;23.13;;
24259;SDS011;12384;48.112;18.418;2022-12-18T09:46:54;29.43;;;26.27;;
24259;SDS011;12384;48.112;18.418;2022-12-18T09:49:30;27.53;;;24.53;;
24259;SDS011;12384;48.112;18.418;2022-12-18T09:52:05;28.13;;;25.13;;
24259;SDS011;12384;48.112;18.418;2022-12-18T09:54:39;27.73;;;24.83;;
24259;SDS011;12384;48.112;18.418;2022-12-18T09:57:14;25.03;;;22.33;;
24259;SDS011;12384;48.112;18.418;2022-12-18T09:59:44;28.33;;;25.33;;
24259;SDS011;12384;48.112;18.418;2022-12-18T10:02:19;30.20;;;26.57;;
24259;SDS011;12384;48.112;18.418;2022-12-18T10:04:53;29.47;;;26.23;;
24259;SDS011;12384;48.112;18.418;2022-12-18T10:07:38;26.40;;;23.53;;
24259;SDS011;12384;48.112;18.418;2022-12-18T10:10:19;29.47;;;26.27;;
24259;SDS011;12384;48.112;18.418;2022-12-18T10:13:00;28.67;;;25.47;;
24259;SDS011;12384;48.112;18.418;2022-12-18T10:15:36;28.70;;;25.70;;
24259;SDS011;12384;48.112;18.418;2022-12-18T10:18:16;26.33;;;23.63;;
24259;SDS011;12384;48.112;18.418;2022-12-18T10:20:54;27.20;;;24.50;;
24259;SDS011;12384;48.112;18.418;2022-12-18T10:23:28;30.80;;;27.43;;
24259;SDS011;12384;48.112;18.418;2022-12-18T10:26:10;27.77;;;24.70;;
24259;SDS011;12384;48.112;18.418;2022-12-18T10:28:41;26.70;;;23.90;;
24259;SDS011;12384;48.112;18.418;2022-12-18T10:31:12;26.23;;;22.10;;
24259;SDS011;12384;48.112;18.418;2022-12-18T10:33:44;25.60;;;22.90;;
24259;SDS011;12384;48.112;18.418;2022-12-18T10:36:13;25.50;;;22.87;;
24259;SDS011;12384;48.112;18.418;2022-12-18T10:38:41;25.57;;;22.90;;
24259;SDS011;12384;48.112;18.418;2022-12-18T10:41:23;25.67;;;23.13;;
24259;SDS011;12384;48.112;18.418;2022-12-18T10:44:14;24.13;;;21.63;;
24259;SDS011;12384;48.112;18.418;2022-12-18T10:46:45;25.20;;;22.70;;
24259;SDS011;12384;48.112;18.418;2022-12-18T10:49:20;25.83;;;23.03;;
24259;SDS011;12384;48.112;18.418;2022-12-18T10:51:51;26.57;;;23.77;;
24259;SDS011;12384;48.112;18.418;2022-12-18T10:54:32;26.63;;;23.83;;
24259;SDS011;12384;48.112;18.418;2022-12-18T10:57:15;25.97;;;23.17;;
24259;SDS011;12384;48.112;18.418;2022-12-18T10:59:51;26.67;;;23.60;;
24259;SDS011;12384;48.112;18.418;2022-12-18T11:02:28;26.97;;;23.90;;
24259;SDS011;12384;48.112;18.418;2022-12-18T11:05:04;27.00;;;24.30;;
24259;SDS011;12384;48.112;18.418;2022-12-18T11:07:53;26.77;;;23.87;;
24259;SDS011;12384;48.112;18.418;2022-12-18T11:10:24;26.73;;;23.83;;
24259;SDS011;12384;48.112;18.418;2022-12-18T11:12:55;27.37;;;24.43;;
24259;SDS011;12384;48.112;18.418;2022-12-18T11:15:37;27.50;;;24.23;;
24259;SDS011;12384;48.112;18.418;2022-12-18T11:18:15;27.20;;;24.07;;
24259;SDS011;12384;48.112;18.418;2022-12-18T11:20:50;25.37;;;22.67;;
24259;SDS011;12384;48.112;18.418;2022-12-18T11:23:24;26.27;;;23.17;;
24259;SDS011;12384;48.112;18.418;2022-12-18T11:25:54;27.43;;;24.60;;
24259;SDS011;12384;48.112;18.418;2022-12-18T11:28:26;25.40;;;22.80;;
24259;SDS011;12384;48.112;18.418;2022-12-18T11:34:02;27.27;;;24.23;;
24259;SDS011;12384;48.112;18.418;2022-12-18T11:36:55;25.10;;;22.43;;
24259;SDS011;12384;48.112;18.418;2022-12-18T11:39:28;26.60;;;23.80;;
24259;SDS011;12384;48.112;18.418;2022-12-18T11:42:04;25.87;;;23.13;;
24259;SDS011;12384;48.112;18.418;2022-12-18T11:44:41;36.43;;;30.00;;
24259;SDS011;12384;48.112;18.418;2022-12-18T11:47:19;27.53;;;23.83;;
24259;SDS011;12384;48.112;18.418;2022-12-18T11:49:55;30.80;;;26.40;;
24259;SDS011;12384;48.112;18.418;2022-12-18T11:52:28;29.63;;;25.47;;
24259;SDS011;12384;48.112;18.418;2022-12-18T11:55:05;38.43;;;30.53;;
24259;SDS011;12384;48.112;18.418;2022-12-18T11:57:41;26.87;;;23.80;;
24259;SDS011;12384;48.112;18.418;2022-12-18T12:00:19;33.17;;;26.63;;
24259;SDS011;12384;48.112;18.418;2022-12-18T12:05:58;29.67;;;25.07;;
24259;SDS011;12384;48.112;18.418;2022-12-18T12:08:36;27.90;;;24.83;;
24259;SDS011;12384;48.112;18.418;2022-12-18T12:11:13;28.57;;;25.20;;
24259;SDS011;12384;48.112;18.418;2022-12-18T12:13:52;32.50;;;26.23;;
24259;SDS011;12384;48.112;18.418;2022-12-18T12:16:37;28.50;;;24.53;;
24259;SDS011;12384;48.112;18.418;2022-12-18T12:19:18;28.90;;;25.00;;
24259;SDS011;12384;48.112;18.418;2022-12-18T12:21:58;27.40;;;23.43;;
24259;SDS011;12384;48.112;18.418;2022-12-18T12:24:37;28.43;;;25.33;;
24259;SDS011;12384;48.112;18.418;2022-12-18T12:27:18;27.80;;;24.47;;
24259;SDS011;12384;48.112;18.418;2022-12-18T12:29:58;29.07;;;25.30;;
24259;SDS011;12384;48.112;18.418;2022-12-18T12:32:45;30.43;;;26.77;;
24259;SDS011;12384;48.112;18.418;2022-12-18T12:35:32;31.13;;;26.13;;
24259;SDS011;12384;48.112;18.418;2022-12-18T12:38:10;33.07;;;26.80;;
24259;SDS011;12384;48.112;18.418;2022-12-18T12:40:43;33.97;;;27.23;;
24259;SDS011;12384;48.112;18.418;2022-12-18T12:43:28;31.83;;;26.67;;
24259;SDS011;12384;48.112;18.418;2022-12-18T12:46:03;29.07;;;25.67;;
24259;SDS011;12384;48.112;18.418;2022-12-18T12:48:35;30.53;;;25.83;;
24259;SDS011;12384;48.112;18.418;2022-12-18T12:51:14;28.93;;;25.17;;
24259;SDS011;12384;48.112;18.418;2022-12-18T12:53:46;29.33;;;24.80;;
24259;SDS011;12384;48.112;18.418;2022-12-18T12:56:16;27.83;;;24.13;;
24259;SDS011;12384;48.112;18.418;2022-12-18T12:58:53;27.30;;;24.23;;
24259;SDS011;12384;48.112;18.418;2022-12-18T13:01:28;28.23;;;24.33;;
24259;SDS011;12384;48.112;18.418;2022-12-18T13:04:08;27.80;;;23.10;;
24259;SDS011;12384;48.112;18.418;2022-12-18T13:06:49;27.77;;;24.50;;
24259;SDS011;12384;48.112;18.418;2022-12-18T13:09:23;32.17;;;25.30;;
24259;SDS011;12384;48.112;18.418;2022-12-18T13:11:52;29.80;;;25.23;;
24259;SDS011;12384;48.112;18.418;2022-12-18T13:14:43;27.47;;;23.83;;
24259;SDS011;12384;48.112;18.418;2022-12-18T13:17:28;33.63;;;26.97;;
24259;SDS011;12384;48.112;18.418;2022-12-18T13:20:08;31.63;;;25.70;;
24259;SDS011;12384;48.112;18.418;2022-12-18T13:22:44;29.80;;;24.30;;
24259;SDS011;12384;48.112;18.418;2022-12-18T13:25:30;30.10;;;25.33;;
24259;SDS011;12384;48.112;18.418;2022-12-18T13:28:03;30.60;;;25.50;;
24259;SDS011;12384;48.112;18.418;2022-12-18T13:30:42;28.93;;;24.17;;
24259;SDS011;12384;48.112;18.418;2022-12-18T13:36:35;28.20;;;23.20;;
24259;SDS011;12384;48.112;18.418;2022-12-18T13:45:43;27.40;;;23.27;;
24259;SDS011;12384;48.112;18.418;2022-12-18T13:48:21;27.23;;;23.73;;
24259;SDS011;12384;48.112;18.418;2022-12-18T13:50:52;30.10;;;24.70;;
24259;SDS011;12384;48.112;18.418;2022-12-18T13:53:24;32.73;;;27.33;;
24259;SDS011;12384;48.112;18.418;2022-12-18T13:55:57;29.30;;;24.67;;
24259;SDS011;12384;48.112;18.418;2022-12-18T13:58:26;38.97;;;29.20;;
24259;SDS011;12384;48.112;18.418;2022-12-18T14:00:54;32.03;;;25.40;;
24259;SDS011;12384;48.112;18.418;2022-12-18T14:03:24;26.43;;;22.17;;
24259;SDS011;12384;48.112;18.418;2022-12-18T14:05:55;27.67;;;22.43;;
24259;SDS011;12384;48.112;18.418;2022-12-18T14:08:30;26.00;;;21.93;;
24259;SDS011;12384;48.112;18.418;2022-12-18T14:11:04;27.00;;;21.80;;
24259;SDS011;12384;48.112;18.418;2022-12-18T14:13:37;26.07;;;21.50;;
24259;SDS011;12384;48.112;18.418;2022-12-18T14:16:11;24.90;;;21.07;;
24259;SDS011;12384;48.112;18.418;2022-12-18T14:18:43;25.47;;;21.33;;
24259;SDS011;12384;48.112;18.418;2022-12-18T14:21:18;24.40;;;20.00;;
24259;SDS011;12384;48.112;18.418;2022-12-18T14:23:49;25.03;;;21.40;;
24259;SDS011;12384;48.112;18.418;2022-12-18T14:26:33;28.37;;;22.07;;
24259;SDS011;12384;48.112;18.418;2022-12-18T14:29:17;25.43;;;19.57;;
24259;SDS011;12384;48.112;18.418;2022-12-18T14:34:42;25.80;;;19.97;;
24259;SDS011;12384;48.112;18.418;2022-12-18T14:37:12;22.00;;;18.07;;
24259;SDS011;12384;48.112;18.418;2022-12-18T14:39:51;23.53;;;18.37;;
24259;SDS011;12384;48.112;18.418;2022-12-18T14:42:26;25.03;;;18.97;;
24259;SDS011;12384;48.112;18.418;2022-12-18T14:48:09;27.87;;;19.50;;
24259;SDS011;12384;48.112;18.418;2022-12-18T14:50:59;25.10;;;18.43;;
24259;SDS011;12384;48.112;18.418;2022-12-18T14:53:34;22.57;;;18.50;;
24259;SDS011;12384;48.112;18.418;2022-12-18T14:56:14;26.63;;;20.50;;
24259;SDS011;12384;48.112;18.418;2022-12-18T14:58:50;25.23;;;18.57;;
24259;SDS011;12384;48.112;18.418;2022-12-18T15:01:22;22.80;;;18.87;;